Time;durP1;ratioP1;P1;durP2;ratioP2;P2;SDS_P1;SDS_P2;PMS_P1;PMS_P2;Temp;Humidity;BMP_temperature;BMP_pressure;BME280_temperature;BME280_humidity;BME280_pressure;Samples;Min_cycle;Max_cycle;Signal;HPM_P1;HPM_P2
2021/12/13 00:01:19;;;;;;;17.40;12.97;;;12.50;99.90;;;;;;5070490;28;20469;-68
2021/12/13 00:03:47;;;;;;;16.77;15.07;;;12.50;99.90;;;;;;5069763;28;20411;-68
2021/12/13 00:06:21;;;;;;;19.43;14.30;;;12.50;99.90;;;;;;5070208;28;20472;-68
2021/12/13 00:08:52;;;;;;;20.70;16.23;;;12.40;99.90;;;;;;5070303;28;20430;-68
2021/12/13 00:11:25;;;;;;;16.70;14.90;;;12.50;99.90;;;;;;5070329;28;20431;-68
2021/12/13 00:14:07;;;;;;;18.63;16.80;;;12.40;99.90;;;;;;5069324;28;20411;-68
2021/12/13 00:16:37;;;;;;;19.63;15.20;;;12.40;99.90;;;;;;5051673;28;20425;-68
2021/12/13 00:19:13;;;;;;;18.40;15.93;;;12.40;99.90;;;;;;5071365;28;20420;-68
2021/12/13 00:21:49;;;;;;;19.13;14.90;;;12.50;99.90;;;;;;5071604;28;20935;-68
2021/12/13 00:24:26;;;;;;;16.63;14.83;;;12.50;99.90;;;;;;5075135;28;20402;-68
2021/12/13 00:27:01;;;;;;;18.30;14.73;;;12.50;99.90;;;;;;5074785;28;20480;-68
2021/12/13 00:29:38;;;;;;;19.20;16.00;;;12.40;99.90;;;;;;5066378;28;20423;-69
2021/12/13 00:32:26;;;;;;;16.63;14.33;;;12.40;99.90;;;;;;5054953;28;20393;-68
2021/12/13 00:34:54;;;;;;;16.97;14.70;;;12.40;99.90;;;;;;5053932;28;20485;-68
2021/12/13 00:37:35;;;;;;;17.90;14.83;;;12.50;99.90;;;;;;5053667;28;20858;-68
2021/12/13 00:40:30;;;;;;;16.33;14.63;;;12.50;99.90;;;;;;5054831;28;20450;-68
2021/12/13 00:43:08;;;;;;;17.40;14.53;;;12.50;99.90;;;;;;5052783;28;20436;-68
2021/12/13 00:45:38;;;;;;;15.97;14.33;;;12.50;99.90;;;;;;5052432;28;20482;-69
2021/12/13 00:48:06;;;;;;;16.20;14.50;;;12.50;99.90;;;;;;5054746;28;20416;-68
2021/12/13 00:50:32;;;;;;;17.07;13.50;;;12.50;99.90;;;;;;5053872;28;20507;-68
2021/12/13 00:52:59;;;;;;;16.27;13.63;;;12.50;99.90;;;;;;5059173;28;20998;-68
2021/12/13 00:55:29;;;;;;;17.60;15.90;;;12.50;99.90;;;;;;5073903;28;20183;-76
2021/12/13 00:58:17;;;;;;;15.70;13.10;;;12.50;99.90;;;;;;5074897;28;20495;-69
2021/12/13 01:00:53;;;;;;;13.87;12.47;;;12.50;99.90;;;;;;5072480;28;20409;-68
2021/12/13 01:03:27;;;;;;;13.40;12.17;;;12.50;99.90;;;;;;5074260;28;20431;-68
2021/12/13 01:06:37;;;;;;;14.30;12.10;;;12.50;99.90;;;;;;5060447;28;20878;-68
2021/12/13 01:09:42;;;;;;;11.43;10.33;;;12.50;99.90;;;;;;5053937;28;20836;-68
2021/12/13 01:12:12;;;;;;;12.67;11.33;;;12.50;99.90;;;;;;4972917;28;20427;-68
2021/12/13 01:14:44;;;;;;;12.40;11.30;;;12.50;99.90;;;;;;4972287;28;20436;-68
2021/12/13 01:20:34;;;;;;;11.73;10.60;;;12.50;99.90;;;;;;5073887;28;20432;-68
2021/12/13 01:23:07;;;;;;;11.27;10.27;;;12.50;99.90;;;;;;5072794;28;20413;-68
2021/12/13 01:26:02;;;;;;;11.90;10.90;;;12.50;99.90;;;;;;5072957;28;20777;-68
2021/12/13 01:28:39;;;;;;;9.73;8.43;;;12.60;99.90;;;;;;5068429;28;20810;-77
2021/12/13 01:31:18;;;;;;;10.17;9.23;;;12.50;99.90;;;;;;5053574;28;20426;-68
2021/12/13 01:33:46;;;;;;;9.80;8.87;;;12.50;99.90;;;;;;5052389;28;20443;-68
2021/12/13 01:36:19;;;;;;;9.10;8.30;;;12.60;99.90;;;;;;5053671;28;20430;-68
2021/12/13 01:38:51;;;;;;;9.13;8.33;;;12.60;99.90;;;;;;5052679;28;20503;-68
2021/12/13 01:41:23;;;;;;;8.90;8.10;;;12.60;99.90;;;;;;5067185;28;20989;-68
2021/12/13 01:44:05;;;;;;;10.83;8.80;;;12.60;99.90;;;;;;5072226;28;21080;-68
2021/12/13 01:46:36;;;;;;;8.47;7.77;;;12.60;99.90;;;;;;5071210;28;20986;-74
2021/12/13 01:49:03;;;;;;;8.00;7.30;;;12.60;99.90;;;;;;5073653;28;20468;-68
2021/12/13 01:51:33;;;;;;;9.73;7.90;;;12.60;99.90;;;;;;5073221;28;20420;-77
2021/12/13 01:54:04;;;;;;;7.60;6.97;;;12.60;99.90;;;;;;5071368;28;20520;-68
2021/12/13 01:56:47;;;;;;;7.80;7.10;;;12.60;99.90;;;;;;5071549;28;20422;-76
2021/12/13 01:59:43;;;;;;;8.47;7.70;;;12.60;99.90;;;;;;5071528;28;20768;-68
2021/12/13 02:02:14;;;;;;;8.60;7.70;;;12.60;99.90;;;;;;5073237;28;20427;-68
2021/12/13 02:04:42;;;;;;;8.43;7.73;;;12.60;99.90;;;;;;5064143;28;20464;-68
2021/12/13 02:07:09;;;;;;;8.33;7.63;;;12.60;99.90;;;;;;5053048;28;20794;-68
2021/12/13 02:09:38;;;;;;;8.80;8.00;;;12.70;99.90;;;;;;5050981;28;20776;-68
2021/12/13 02:12:11;;;;;;;9.03;8.23;;;12.60;99.90;;;;;;5052947;28;20425;-68
2021/12/13 02:14:48;;;;;;;8.67;7.97;;;12.60;99.90;;;;;;5052304;28;20762;-68
2021/12/13 02:17:20;;;;;;;8.40;7.70;;;12.60;99.90;;;;;;5053317;28;20463;-68
2021/12/13 02:20:03;;;;;;;8.13;7.40;;;12.60;99.90;;;;;;5067038;28;20423;-68
2021/12/13 02:22:49;;;;;;;8.17;7.47;;;12.60;99.90;;;;;;5071164;28;20432;-77
2021/12/13 02:25:28;;;;;;;10.40;9.50;;;12.60;99.90;;;;;;5072748;28;20404;-68
2021/12/13 02:28:05;;;;;;;9.90;8.90;;;12.60;99.90;;;;;;5072055;28;20444;-68
2021/12/13 02:30:33;;;;;;;10.40;9.43;;;12.60;99.90;;;;;;5072684;28;20428;-77
2021/12/13 02:33:01;;;;;;;9.60;8.73;;;12.60;99.90;;;;;;5059604;28;20815;-68
2021/12/13 02:35:30;;;;;;;10.10;9.20;;;12.50;99.90;;;;;;5052578;28;20506;-68
2021/12/13 02:37:57;;;;;;;10.90;9.87;;;12.40;99.90;;;;;;5052904;28;20453;-68
2021/12/13 02:40:24;;;;;;;10.80;9.80;;;12.50;99.90;;;;;;5052530;28;20779;-68
2021/12/13 02:42:51;;;;;;;9.90;9.03;;;12.50;99.90;;;;;;5051448;28;20453;-68
2021/12/13 02:45:19;;;;;;;11.67;9.37;;;12.60;99.90;;;;;;5051341;28;20460;-68
2021/12/13 02:47:55;;;;;;;10.40;9.47;;;12.60;99.90;;;;;;5051533;28;20560;-69
2021/12/13 02:50:28;;;;;;;10.60;9.60;;;12.50;99.90;;;;;;5052502;28;20398;-68
2021/12/13 02:52:53;;;;;;;11.57;10.50;;;12.50;99.90;;;;;;5051642;28;20399;-68
2021/12/13 02:55:25;;;;;;;9.93;9.10;;;12.50;99.90;;;;;;5052109;28;20430;-68
2021/12/13 02:57:53;;;;;;;10.20;9.30;;;12.50;99.90;;;;;;5051373;28;20207;-68
2021/12/13 03:00:44;;;;;;;9.77;8.93;;;12.50;99.90;;;;;;5052583;28;20428;-68
2021/12/13 03:03:14;;;;;;;10.10;9.10;;;12.50;99.90;;;;;;5052364;28;20389;-68
2021/12/13 03:05:45;;;;;;;10.20;9.30;;;12.50;99.90;;;;;;5051393;28;20472;-68
2021/12/13 03:08:18;;;;;;;9.93;8.93;;;12.50;99.90;;;;;;5052352;28;20400;-68
2021/12/13 03:10:50;;;;;;;10.93;9.90;;;12.50;99.90;;;;;;5051715;28;20929;-68
2021/12/13 03:13:17;;;;;;;13.17;9.70;;;12.50;99.90;;;;;;5051732;28;20441;-68
2021/12/13 03:15:56;;;;;;;10.57;9.57;;;12.50;99.90;;;;;;5069430;28;20477;-68
2021/12/13 03:18:29;;;;;;;12.13;11.13;;;12.50;99.90;;;;;;5070951;28;20492;-68
2021/12/13 03:21:03;;;;;;;10.53;9.43;;;12.50;99.90;;;;;;5071367;28;20475;-68
2021/12/13 03:24:12;;;;;;;10.40;9.40;;;12.50;99.90;;;;;;5071784;28;20471;-68
2021/12/13 03:27:06;;;;;;;10.47;9.47;;;12.50;99.90;;;;;;5032134;28;20490;-68
2021/12/13 03:29:54;;;;;;;10.57;9.57;;;12.50;99.90;;;;;;5055359;28;20433;-68
2021/12/13 03:32:21;;;;;;;11.50;10.40;;;12.50;99.90;;;;;;5051644;28;20754;-68
2021/12/13 03:35:02;;;;;;;10.97;10.00;;;12.50;99.90;;;;;;5051097;28;20415;-68
2021/12/13 03:37:28;;;;;;;10.60;9.50;;;12.50;99.90;;;;;;5034147;28;20811;-68
2021/12/13 03:39:59;;;;;;;10.67;9.67;;;12.50;99.90;;;;;;5051019;28;20458;-68
2021/12/13 03:42:31;;;;;;;10.90;9.40;;;12.50;99.90;;;;;;5052935;28;20433;-68
2021/12/13 03:45:01;;;;;;;10.93;9.90;;;12.50;99.90;;;;;;5050952;28;20488;-68
2021/12/13 03:47:38;;;;;;;10.90;9.80;;;12.50;99.90;;;;;;5050160;28;20466;-68
2021/12/13 03:50:24;;;;;;;10.30;9.40;;;12.50;99.90;;;;;;5050438;28;20464;-68
2021/12/13 03:52:53;;;;;;;11.43;9.60;;;12.50;99.90;;;;;;5050808;28;20755;-68
2021/12/13 03:55:21;;;;;;;10.80;9.80;;;12.50;99.90;;;;;;5052401;28;20458;-68
2021/12/13 03:57:52;;;;;;;11.37;9.10;;;12.50;99.90;;;;;;5054781;28;20452;-68
2021/12/13 04:00:22;;;;;;;10.00;9.20;;;12.50;99.90;;;;;;5055317;28;20406;-68
2021/12/13 04:02:49;;;;;;;10.70;9.70;;;12.50;99.90;;;;;;5054747;28;20454;-68
2021/12/13 04:05:19;;;;;;;11.03;9.13;;;12.50;99.90;;;;;;5053922;28;20870;-68
2021/12/13 04:07:48;;;;;;;11.40;9.70;;;12.50;99.90;;;;;;5054255;28;20816;-68
2021/12/13 04:10:21;;;;;;;10.63;9.63;;;12.50;99.90;;;;;;5060648;28;20509;-68
2021/12/13 04:12:52;;;;;;;10.27;9.27;;;12.50;99.90;;;;;;5074616;28;20388;-68
2021/12/13 04:15:22;;;;;;;9.80;8.80;;;12.50;99.90;;;;;;5074936;28;20741;-68
2021/12/13 04:18:14;;;;;;;9.57;8.77;;;12.50;99.90;;;;;;5074200;28;20430;-68
2021/12/13 04:20:42;;;;;;;10.67;9.60;;;12.40;99.90;;;;;;5074431;28;20456;-69
2021/12/13 04:23:20;;;;;;;9.23;8.33;;;12.40;99.90;;;;;;5073627;28;20744;-68
2021/12/13 04:25:50;;;;;;;10.77;9.77;;;12.40;99.90;;;;;;5072614;28;20416;-68
2021/12/13 04:28:38;;;;;;;9.63;8.13;;;12.40;99.90;;;;;;5075024;28;20466;-68
2021/12/13 04:31:08;;;;;;;10.30;8.77;;;12.40;99.90;;;;;;5073386;28;20398;-68
2021/12/13 04:33:41;;;;;;;8.50;7.70;;;12.40;99.90;;;;;;5074546;28;20477;-68
2021/12/13 04:36:13;;;;;;;9.57;8.57;;;12.40;99.90;;;;;;5074915;28;20404;-68
2021/12/13 04:38:53;;;;;;;9.37;8.47;;;12.40;99.90;;;;;;5074439;28;20415;-77
2021/12/13 04:41:30;;;;;;;9.67;8.67;;;12.40;99.90;;;;;;5073154;28;20415;-68
2021/12/13 04:44:00;;;;;;;9.27;8.47;;;12.40;99.90;;;;;;5073818;28;20460;-68
2021/12/13 04:46:30;;;;;;;8.80;7.97;;;12.40;99.90;;;;;;5074315;28;20792;-68
2021/12/13 04:49:08;;;;;;;9.50;8.60;;;12.40;99.90;;;;;;5073804;28;20431;-68
2021/12/13 04:52:02;;;;;;;8.70;7.90;;;12.40;99.90;;;;;;5074675;28;20414;-68
2021/12/13 04:54:31;;;;;;;9.77;8.87;;;12.40;99.90;;;;;;5071493;28;20451;-68
2021/12/13 04:56:59;;;;;;;10.20;8.87;;;12.40;99.90;;;;;;5071844;28;20530;-68
2021/12/13 04:59:26;;;;;;;9.60;8.70;;;12.40;99.90;;;;;;5074403;28;20400;-68
2021/12/13 05:01:56;;;;;;;9.83;8.67;;;12.40;99.90;;;;;;5064714;28;20430;-68
2021/12/13 05:04:23;;;;;;;9.37;8.43;;;12.40;99.90;;;;;;5048321;28;21003;-69
2021/12/13 05:06:51;;;;;;;9.37;8.47;;;12.40;99.90;;;;;;5071529;28;20455;-69
2021/12/13 05:09:19;;;;;;;9.67;8.67;;;12.40;99.90;;;;;;5072991;28;20774;-69
2021/12/13 05:12:07;;;;;;;9.97;8.97;;;12.40;99.90;;;;;;5050354;28;20428;-69
2021/12/13 05:14:37;;;;;;;9.60;8.70;;;12.40;99.90;;;;;;5068823;28;20428;-69
2021/12/13 05:17:16;;;;;;;9.00;7.70;;;12.40;99.90;;;;;;5062607;28;20440;-68
2021/12/13 05:20:06;;;;;;;10.67;9.67;;;12.40;99.90;;;;;;5063163;28;21016;-77
2021/12/13 05:22:38;;;;;;;10.43;9.43;;;12.40;99.90;;;;;;5073764;28;20435;-68
2021/12/13 05:25:04;;;;;;;8.03;7.27;;;12.40;99.90;;;;;;5073070;28;20400;-68
2021/12/13 05:27:37;;;;;;;8.63;7.83;;;12.40;99.90;;;;;;5073247;28;20486;-68
2021/12/13 05:30:14;;;;;;;10.67;9.77;;;12.30;99.90;;;;;;5073021;28;20413;-68
2021/12/13 05:32:47;;;;;;;11.10;10.20;;;12.30;99.90;;;;;;5058318;28;20426;-77
2021/12/13 05:35:13;;;;;;;10.63;7.90;;;12.30;99.90;;;;;;5053945;28;20402;-68
2021/12/13 05:37:45;;;;;;;8.90;8.00;;;12.30;99.90;;;;;;5053369;28;20416;-69
2021/12/13 05:40:44;;;;;;;13.23;12.00;;;12.30;99.90;;;;;;5069527;28;20272;-68
2021/12/13 05:43:20;;;;;;;9.90;9.00;;;12.30;99.90;;;;;;5073822;28;20750;-68
2021/12/13 05:46:02;;;;;;;9.80;8.90;;;12.30;99.90;;;;;;5071378;28;20509;-69
2021/12/13 05:48:34;;;;;;;9.37;8.30;;;12.30;99.90;;;;;;5073437;28;20409;-68
2021/12/13 05:51:03;;;;;;;11.27;10.17;;;12.30;99.90;;;;;;5072608;28;20535;-68
2021/12/13 05:53:36;;;;;;;12.17;11.17;;;12.20;99.90;;;;;;5071637;28;20761;-68
2021/12/13 05:56:11;;;;;;;9.90;9.00;;;12.20;99.90;;;;;;5071137;28;20482;-68
2021/12/13 05:58:46;;;;;;;9.13;8.23;;;12.20;99.90;;;;;;5072017;28;20481;-69
2021/12/13 06:01:21;;;;;;;8.67;7.77;;;12.20;99.90;;;;;;5062466;28;20429;-69
2021/12/13 06:04:16;;;;;;;9.90;8.67;;;12.20;99.90;;;;;;5052770;28;20899;-68
2021/12/13 06:06:48;;;;;;;10.00;8.83;;;12.20;99.90;;;;;;5048529;28;21030;-71
2021/12/13 06:09:45;;;;;;;9.53;8.63;;;12.20;99.90;;;;;;5053735;28;20412;-68
2021/12/13 06:12:24;;;;;;;9.20;8.30;;;12.20;99.90;;;;;;5053341;28;20409;-68
2021/12/13 06:14:50;;;;;;;11.40;9.80;;;12.20;99.90;;;;;;5068418;28;20427;-69
2021/12/13 06:17:37;;;;;;;12.10;8.93;;;12.20;99.90;;;;;;5073532;28;20423;-68
2021/12/13 06:20:11;;;;;;;8.00;7.30;;;12.20;99.90;;;;;;5072666;28;20409;-69
2021/12/13 06:22:36;;;;;;;8.97;7.97;;;12.20;99.90;;;;;;5073258;28;20392;-68
2021/12/13 06:25:10;;;;;;;9.87;8.40;;;12.30;99.90;;;;;;5072330;28;21067;-69
2021/12/13 06:27:54;;;;;;;9.77;8.77;;;12.30;99.90;;;;;;5072121;28;20196;-68
2021/12/13 06:30:30;;;;;;;8.47;7.60;;;12.30;99.90;;;;;;5070989;28;20442;-68
2021/12/13 06:33:04;;;;;;;11.80;9.40;;;12.30;99.90;;;;;;5061398;28;20734;-69
2021/12/13 06:35:45;;;;;;;9.60;8.70;;;12.30;99.90;;;;;;5073195;28;20739;-69
2021/12/13 06:38:19;;;;;;;11.20;10.20;;;12.30;99.90;;;;;;5065755;28;20417;-69
2021/12/13 06:40:55;;;;;;;10.20;9.13;;;12.40;99.90;;;;;;5069229;28;20514;-69
2021/12/13 06:43:29;;;;;;;9.93;8.93;;;12.40;99.90;;;;;;5071301;28;20445;-69
2021/12/13 06:45:56;;;;;;;8.80;7.97;;;12.40;99.90;;;;;;5069715;28;20436;-69
2021/12/13 06:48:33;;;;;;;10.00;9.10;;;12.40;99.90;;;;;;5070846;28;20527;-69
2021/12/13 06:50:58;;;;;;;10.37;9.40;;;12.40;99.90;;;;;;5069565;28;20415;-69
2021/12/13 06:53:24;;;;;;;8.10;7.30;;;12.40;99.90;;;;;;5062466;28;20419;-69
2021/12/13 06:55:50;;;;;;;8.60;7.70;;;12.40;99.90;;;;;;5064876;28;20220;-69
2021/12/13 06:58:26;;;;;;;10.60;9.70;;;12.40;99.90;;;;;;5065633;28;20186;-68
2021/12/13 07:00:56;;;;;;;10.23;9.33;;;12.40;99.90;;;;;;5057633;28;20906;-69
2021/12/13 07:03:32;;;;;;;10.33;9.23;;;12.40;99.90;;;;;;5068468;28;20421;-69
2021/12/13 07:06:00;;;;;;;8.73;7.63;;;12.40;99.90;;;;;;5070114;28;20407;-69
2021/12/13 07:08:35;;;;;;;9.90;7.73;;;12.40;99.90;;;;;;5071099;28;20509;-70
2021/12/13 07:11:11;;;;;;;8.80;7.97;;;12.40;99.90;;;;;;5070332;28;20442;-69
2021/12/13 07:13:48;;;;;;;8.67;7.97;;;12.40;99.90;;;;;;5069226;28;20521;-68
2021/12/13 07:16:16;;;;;;;9.57;8.77;;;12.40;99.90;;;;;;5061804;28;20417;-68
2021/12/13 07:18:42;;;;;;;15.00;8.97;;;12.40;99.90;;;;;;5072077;28;20430;-69
2021/12/13 07:21:18;;;;;;;12.17;9.13;;;12.40;99.90;;;;;;5058880;28;20423;-68
2021/12/13 07:24:03;;;;;;;10.87;9.50;;;12.40;99.90;;;;;;5072438;28;20541;-68
2021/12/13 07:26:52;;;;;;;9.33;8.33;;;12.50;99.90;;;;;;5067578;28;20551;-69
2021/12/13 07:29:21;;;;;;;12.20;11.10;;;12.50;99.90;;;;;;5067913;28;20423;-68
2021/12/13 07:32:11;;;;;;;10.10;8.80;;;12.50;99.90;;;;;;5058906;28;20444;-77
2021/12/13 07:35:02;;;;;;;13.10;11.90;;;12.40;99.90;;;;;;5060085;28;20873;-69
2021/12/13 07:37:45;;;;;;;12.87;10.00;;;12.50;99.90;;;;;;5056442;28;20399;-68
2021/12/13 07:40:43;;;;;;;9.57;8.63;;;12.40;99.90;;;;;;5066000;28;20492;-69
2021/12/13 07:43:26;;;;;;;12.87;11.67;;;12.40;99.90;;;;;;5070971;28;20515;-69
2021/12/13 07:46:09;;;;;;;11.13;9.97;;;12.50;99.90;;;;;;5074456;28;20430;-70
2021/12/13 07:48:40;;;;;;;9.57;8.57;;;12.40;99.90;;;;;;5075341;28;20423;-72
2021/12/13 07:51:15;;;;;;;8.33;7.53;;;12.60;99.90;;;;;;5073847;28;20641;-72
2021/12/13 07:54:03;;;;;;;10.37;9.10;;;13.10;99.90;;;;;;5075698;28;20424;-72
2021/12/13 07:56:29;;;;;;;9.77;8.77;;;13.70;99.90;;;;;;5075924;28;20413;-72
2021/12/13 07:59:09;;;;;;;9.03;8.17;;;14.20;99.90;;;;;;5074966;28;20417;-72
2021/12/13 08:01:52;;;;;;;11.00;10.20;;;14.60;99.90;;;;;;5075953;28;20161;-72
2021/12/13 08:04:23;;;;;;;9.40;8.50;;;14.80;99.90;;;;;;5074315;28;20439;-71
2021/12/13 08:06:53;;;;;;;9.87;8.97;;;15.00;99.90;;;;;;5074563;28;20443;-80
2021/12/13 08:09:22;;;;;;;11.20;8.57;;;15.10;99.90;;;;;;5075842;28;20410;-73
2021/12/13 08:11:58;;;;;;;9.93;9.00;;;15.30;99.90;;;;;;5074851;28;20412;-74
2021/12/13 08:14:32;;;;;;;10.23;9.37;;;15.40;99.90;;;;;;5075890;28;20417;-72
2021/12/13 08:17:08;;;;;;;9.70;8.77;;;15.40;99.90;;;;;;5074584;28;20420;-72
2021/12/13 08:19:34;;;;;;;9.80;8.90;;;15.50;99.60;;;;;;5075181;28;20898;-72
2021/12/13 08:22:11;;;;;;;9.50;8.67;;;15.60;99.40;;;;;;5074852;28;20418;-72
2021/12/13 08:24:45;;;;;;;8.97;8.17;;;15.60;98.70;;;;;;5075474;28;20479;-72
2021/12/13 08:27:16;;;;;;;9.37;8.23;;;15.70;98.80;;;;;;5073831;28;20959;-72
2021/12/13 08:29:43;;;;;;;9.13;8.23;;;15.80;98.90;;;;;;5073666;28;20448;-72
2021/12/13 08:32:23;;;;;;;9.77;8.87;;;15.90;98.50;;;;;;5072527;28;21073;-72
2021/12/13 08:34:53;;;;;;;9.00;8.20;;;15.90;98.40;;;;;;5062960;28;20409;-81
2021/12/13 08:37:33;;;;;;;10.00;9.10;;;15.80;97.80;;;;;;5074522;28;20769;-72
2021/12/13 08:40:08;;;;;;;8.40;7.60;;;15.80;98.10;;;;;;5074627;28;20823;-73
2021/12/13 08:42:38;;;;;;;10.20;9.10;;;15.80;98.70;;;;;;5073396;28;20404;-69
2021/12/13 08:45:11;;;;;;;9.33;8.33;;;15.70;97.60;;;;;;5073476;28;20965;-69
2021/12/13 08:47:45;;;;;;;9.70;8.80;;;15.50;97.40;;;;;;5063334;28;20477;-69
2021/12/13 08:50:20;;;;;;;9.97;8.93;;;15.30;97.70;;;;;;5072990;28;20791;-69
2021/12/13 08:53:02;;;;;;;10.27;9.30;;;15.00;98.10;;;;;;5074987;28;20410;-69
2021/12/13 08:55:38;;;;;;;10.00;9.10;;;14.70;98.70;;;;;;5074713;28;20416;-69
2021/12/13 08:58:14;;;;;;;10.77;9.80;;;14.40;99.30;;;;;;5073895;28;20415;-69
2021/12/13 09:00:49;;;;;;;10.57;9.50;;;14.20;99.90;;;;;;5074888;28;20867;-69
2021/12/13 09:03:44;;;;;;;13.50;8.70;;;14.00;99.90;;;;;;5074652;28;20530;-69
2021/12/13 09:06:19;;;;;;;9.60;8.70;;;13.80;99.90;;;;;;5074150;28;20747;-69
2021/12/13 09:08:54;;;;;;;10.30;9.30;;;13.70;99.90;;;;;;5074917;28;20402;-69
2021/12/13 09:11:19;;;;;;;9.80;8.90;;;13.60;99.90;;;;;;5073244;28;20426;-69
2021/12/13 09:14:13;;;;;;;9.93;8.93;;;13.50;99.90;;;;;;5061509;28;20453;-69
2021/12/13 09:17:15;;;;;;;8.87;7.97;;;13.40;99.90;;;;;;5066781;28;20221;-70
2021/12/13 09:19:44;;;;;;;9.23;7.87;;;13.30;99.90;;;;;;5073254;28;20421;-69
2021/12/13 09:22:22;;;;;;;9.20;8.10;;;13.20;99.90;;;;;;5073194;28;20452;-69
2021/12/13 09:24:55;;;;;;;12.40;10.03;;;13.10;99.90;;;;;;5074560;28;20431;-69
2021/12/13 09:27:42;;;;;;;14.67;10.50;;;13.10;99.90;;;;;;5073661;28;20462;-69
2021/12/13 09:30:33;;;;;;;9.60;8.70;;;13.00;99.90;;;;;;5068187;28;20451;-70
2021/12/13 09:33:13;;;;;;;8.77;7.83;;;12.90;99.90;;;;;;5068602;28;20433;-70
2021/12/13 09:35:53;;;;;;;9.70;8.73;;;12.80;99.90;;;;;;5071074;28;20884;-69
2021/12/13 09:38:36;;;;;;;9.53;8.13;;;12.80;99.90;;;;;;5072342;28;20898;-70
2021/12/13 09:41:14;;;;;;;9.43;8.43;;;12.80;99.90;;;;;;5068192;28;20445;-69
2021/12/13 09:44:09;;;;;;;8.50;7.70;;;12.70;99.90;;;;;;5070954;28;20449;-70
2021/12/13 09:46:49;;;;;;;9.73;8.70;;;12.70;99.90;;;;;;5057084;28;20859;-70
2021/12/13 09:49:24;;;;;;;8.70;7.90;;;12.70;99.90;;;;;;5071507;28;20768;-70
2021/12/13 09:51:55;;;;;;;7.90;7.30;;;12.70;99.90;;;;;;5071577;28;20436;-69
2021/12/13 09:54:25;;;;;;;9.93;7.60;;;12.60;99.90;;;;;;5072960;28;20449;-69
2021/12/13 09:56:53;;;;;;;10.03;9.13;;;12.60;99.90;;;;;;5072395;28;20464;-69
2021/12/13 09:59:21;;;;;;;9.10;8.30;;;12.70;99.90;;;;;;5072011;28;20408;-70
2021/12/13 10:01:49;;;;;;;7.63;6.93;;;12.60;99.90;;;;;;5072978;28;20420;-69
2021/12/13 10:04:25;;;;;;;8.77;8.03;;;12.60;99.90;;;;;;5071275;28;20436;-69
2021/12/13 10:06:56;;;;;;;9.10;8.20;;;12.60;99.90;;;;;;5073267;28;20508;-70
2021/12/13 10:09:43;;;;;;;8.50;7.80;;;12.70;99.90;;;;;;5070783;28;20870;-69
2021/12/13 10:12:15;;;;;;;8.67;7.87;;;12.70;99.90;;;;;;5071035;28;20402;-69
2021/12/13 10:15:10;;;;;;;8.70;7.90;;;12.70;99.90;;;;;;5072851;28;20830;-70
2021/12/13 10:17:39;;;;;;;8.90;8.00;;;12.70;99.90;;;;;;5073002;28;20924;-70
2021/12/13 10:20:31;;;;;;;9.40;8.33;;;12.70;99.90;;;;;;5071955;28;20432;-69
2021/12/13 10:22:57;;;;;;;9.63;8.70;;;12.70;99.90;;;;;;5069670;28;20431;-69
2021/12/13 10:25:33;;;;;;;8.60;7.70;;;12.70;99.90;;;;;;5072381;28;20911;-68
2021/12/13 10:28:00;;;;;;;8.07;7.27;;;12.70;99.90;;;;;;5071265;28;20451;-70
2021/12/13 10:30:33;;;;;;;8.30;7.23;;;12.70;99.90;;;;;;5072125;28;20424;-69
2021/12/13 10:33:02;;;;;;;7.10;6.40;;;12.70;99.90;;;;;;5071545;28;20456;-70
2021/12/13 10:35:33;;;;;;;10.63;9.63;;;12.70;99.90;;;;;;5058692;28;20932;-69
2021/12/13 10:38:10;;;;;;;8.73;8.13;;;12.70;99.90;;;;;;5072101;28;20506;-69
2021/12/13 10:40:50;;;;;;;6.73;6.23;;;12.70;99.90;;;;;;5055097;28;20771;-69
2021/12/13 10:43:21;;;;;;;7.57;6.07;;;12.60;99.90;;;;;;5069164;28;20432;-69
2021/12/13 10:46:02;;;;;;;9.57;8.77;;;12.60;99.90;;;;;;5059280;28;20540;-69
2021/12/13 10:48:30;;;;;;;7.90;7.30;;;12.60;99.90;;;;;;5072311;28;20429;-69
2021/12/13 10:51:09;;;;;;;9.60;8.83;;;12.60;99.90;;;;;;5069409;28;20775;-80
2021/12/13 10:53:36;;;;;;;7.53;6.97;;;12.60;99.90;;;;;;5072290;28;20464;-68
2021/12/13 10:56:07;;;;;;;7.50;6.90;;;12.60;99.90;;;;;;5071376;28;20569;-68
2021/12/13 10:58:39;;;;;;;9.70;9.00;;;12.60;99.90;;;;;;5071987;28;20932;-68
2021/12/13 11:01:13;;;;;;;7.80;7.10;;;12.60;99.90;;;;;;5071644;28;20398;-68
2021/12/13 11:03:40;;;;;;;8.30;7.60;;;12.70;99.90;;;;;;5070115;28;20571;-68
2021/12/13 11:06:10;;;;;;;8.37;7.63;;;12.70;99.90;;;;;;5069477;28;20483;-68
2021/12/13 11:08:41;;;;;;;8.80;7.90;;;12.60;99.90;;;;;;5070901;28;20430;-68
2021/12/13 11:11:33;;;;;;;7.80;7.10;;;12.60;99.90;;;;;;5051511;28;20405;-69
2021/12/13 11:14:02;;;;;;;8.63;8.00;;;12.60;99.90;;;;;;5064397;28;20778;-79
2021/12/13 11:16:36;;;;;;;9.93;9.07;;;12.70;99.90;;;;;;5071755;28;20516;-69
2021/12/13 11:19:05;;;;;;;10.20;9.30;;;12.70;99.90;;;;;;5070896;28;20552;-70
2021/12/13 11:21:37;;;;;;;8.43;7.63;;;12.70;99.90;;;;;;5070602;28;20756;-70
2021/12/13 11:24:09;;;;;;;11.20;10.40;;;12.70;99.90;;;;;;5071519;28;20410;-69
2021/12/13 11:26:38;;;;;;;8.17;7.47;;;12.70;99.90;;;;;;5072185;28;20545;-70
2021/12/13 11:29:05;;;;;;;7.60;7.07;;;12.70;99.90;;;;;;5070926;28;21019;-70
2021/12/13 11:31:31;;;;;;;8.27;7.57;;;12.70;99.90;;;;;;5071785;28;20401;-69
2021/12/13 11:34:00;;;;;;;8.53;7.80;;;12.70;99.90;;;;;;5071950;28;20501;-69
2021/12/13 11:36:55;;;;;;;11.23;10.43;;;12.70;99.90;;;;;;5071419;28;20177;-69
2021/12/13 11:39:30;;;;;;;8.43;7.60;;;12.70;99.90;;;;;;5070843;28;20421;-69
2021/12/13 11:42:20;;;;;;;8.47;7.77;;;12.80;99.90;;;;;;5071602;28;20416;-69
2021/12/13 11:45:19;;;;;;;9.07;8.17;;;12.70;99.90;;;;;;5051582;28;20851;-71
2021/12/13 11:48:32;;;;;;;9.37;8.47;;;12.70;99.90;;;;;;5052011;28;20481;-70
2021/12/13 11:51:24;;;;;;;8.20;7.50;;;12.70;99.90;;;;;;4971108;28;20438;-69
2021/12/13 11:54:27;;;;;;;11.30;10.13;;;12.70;99.90;;;;;;5005765;28;20514;-69
2021/12/13 11:57:23;;;;;;;9.83;8.37;;;12.70;99.90;;;;;;5051623;28;20747;-70
2021/12/13 12:00:11;;;;;;;9.90;9.00;;;12.70;99.90;;;;;;5052106;28;20421;-69
2021/12/13 12:03:05;;;;;;;9.83;9.13;;;12.70;99.90;;;;;;5052178;28;20407;-69
2021/12/13 12:05:42;;;;;;;7.60;6.57;;;12.70;99.90;;;;;;5050845;28;20894;-69
2021/12/13 12:08:10;;;;;;;7.53;6.47;;;12.70;99.90;;;;;;5050761;28;20472;-69
2021/12/13 12:11:09;;;;;;;10.90;10.10;;;12.70;99.90;;;;;;5050333;28;20417;-69
2021/12/13 12:14:05;;;;;;;8.60;7.80;;;12.70;99.90;;;;;;5051960;28;20421;-70
2021/12/13 12:16:35;;;;;;;7.30;6.67;;;12.70;99.90;;;;;;5052876;28;20412;-69
2021/12/13 12:19:02;;;;;;;8.43;7.77;;;12.80;99.90;;;;;;5055013;28;20412;-74
2021/12/13 12:21:38;;;;;;;9.00;8.17;;;12.80;99.90;;;;;;5054441;28;20399;-70
2021/12/13 12:24:17;;;;;;;9.03;8.30;;;12.80;99.90;;;;;;5054894;28;20413;-70
2021/12/13 12:26:48;;;;;;;8.57;7.90;;;12.80;99.90;;;;;;5054049;28;20539;-69
2021/12/13 12:29:23;;;;;;;9.17;8.27;;;12.80;99.90;;;;;;5053602;28;20467;-70
2021/12/13 12:32:18;;;;;;;8.77;7.97;;;12.80;99.90;;;;;;5055409;28;20433;-70
2021/12/13 12:35:02;;;;;;;8.77;7.97;;;12.80;99.90;;;;;;5055105;28;20518;-69
2021/12/13 12:37:30;;;;;;;9.40;8.50;;;12.80;99.90;;;;;;5055371;28;20407;-69
2021/12/13 12:40:08;;;;;;;8.63;7.83;;;12.80;99.90;;;;;;5053734;28;20835;-69
2021/12/13 12:42:37;;;;;;;10.43;9.63;;;12.80;99.90;;;;;;5055145;28;20483;-70
2021/12/13 12:45:13;;;;;;;10.50;8.93;;;12.80;99.90;;;;;;5054396;28;20466;-80
2021/12/13 12:47:50;;;;;;;8.20;7.40;;;12.80;99.90;;;;;;5054721;28;20519;-70
2021/12/13 12:50:23;;;;;;;8.07;7.40;;;12.80;99.90;;;;;;5052949;28;20430;-69
2021/12/13 12:52:54;;;;;;;8.33;7.53;;;12.80;99.90;;;;;;5053497;28;20493;-69
2021/12/13 12:55:33;;;;;;;8.00;7.37;;;12.80;99.90;;;;;;5054397;28;20425;-70
2021/12/13 12:58:05;;;;;;;7.60;7.00;;;12.80;99.90;;;;;;5053849;28;20443;-69
2021/12/13 13:00:31;;;;;;;8.87;8.00;;;12.90;99.90;;;;;;5054803;28;20393;-69
2021/12/13 13:02:57;;;;;;;7.20;6.60;;;12.80;99.90;;;;;;5054015;28;20769;-69
2021/12/13 13:05:26;;;;;;;7.87;7.17;;;12.80;99.90;;;;;;5052282;28;20184;-70
2021/12/13 13:07:53;;;;;;;7.70;6.97;;;12.90;99.90;;;;;;5053510;28;20458;-69
2021/12/13 13:10:34;;;;;;;9.10;8.30;;;12.80;99.90;;;;;;5054245;28;20793;-69
2021/12/13 13:13:06;;;;;;;8.40;7.60;;;12.80;99.90;;;;;;5054252;28;20818;-70
2021/12/13 13:15:42;;;;;;;8.80;8.00;;;12.80;99.90;;;;;;5054677;28;20446;-70
2021/12/13 13:18:13;;;;;;;8.43;7.63;;;12.90;99.90;;;;;;5052894;28;20401;-70
2021/12/13 13:20:42;;;;;;;8.83;7.20;;;12.90;99.90;;;;;;5054312;28;20928;-70
2021/12/13 13:23:09;;;;;;;8.63;7.93;;;12.90;99.90;;;;;;5053817;28;20415;-69
2021/12/13 13:25:41;;;;;;;8.20;7.40;;;12.90;99.90;;;;;;5054051;28;20407;-70
2021/12/13 13:28:35;;;;;;;8.53;7.80;;;12.90;99.90;;;;;;5052832;28;20461;-70